Time;durP1;ratioP1;P1;durP2;ratioP2;P2;SDS_P1;SDS_P2;PMS_P1;PMS_P2;Temp;Humidity;BMP_temperature;BMP_pressure;BME280_temperature;BME280_humidity;BME280_pressure;Samples;Min_cycle;Max_cycle;Signal;HPM_P1;HPM_P2
2021/07/06 00:00:24;;;;;;;20.10;13.43;;;16.90;99.90;;;;;;6283357;22;20019;-79
2021/07/06 00:02:53;;;;;;;15.27;13.02;;;16.90;99.90;;;;;;6347679;22;20019;-79
2021/07/06 00:05:19;;;;;;;19.73;13.32;;;16.90;99.90;;;;;;6319790;22;20015;-79
2021/07/06 00:07:50;;;;;;;20.60;13.23;;;16.90;99.90;;;;;;6308688;22;20030;-83
2021/07/06 00:10:18;;;;;;;19.05;12.32;;;16.90;99.90;;;;;;6309194;22;20086;-78
2021/07/06 00:12:44;;;;;;;16.52;13.10;;;16.90;99.90;;;;;;6347072;22;20022;-81
2021/07/06 00:15:13;;;;;;;18.63;13.40;;;16.90;99.90;;;;;;6347305;22;20099;-81
2021/07/06 00:17:40;;;;;;;18.05;12.13;;;16.90;99.90;;;;;;6337817;22;20015;-80
2021/07/06 00:20:08;;;;;;;18.45;12.23;;;16.90;99.90;;;;;;6347356;22;20086;-79
2021/07/06 00:22:35;;;;;;;24.27;13.30;;;16.90;99.90;;;;;;6318629;22;20039;-79
2021/07/06 00:25:01;;;;;;;17.20;12.30;;;16.80;99.90;;;;;;6347681;22;20014;-80
2021/07/06 00:27:27;;;;;;;16.58;11.68;;;16.80;99.90;;;;;;6318929;22;20018;-79
2021/07/06 00:29:53;;;;;;;19.92;12.57;;;16.80;99.90;;;;;;6308827;22;20018;-80
2021/07/06 00:32:19;;;;;;;17.00;12.40;;;16.80;99.90;;;;;;6311246;22;20019;-79
2021/07/06 00:34:44;;;;;;;13.07;11.00;;;16.80;99.90;;;;;;6346734;22;20018;-79
2021/07/06 00:37:10;;;;;;;22.42;11.88;;;16.80;99.90;;;;;;6308062;22;20019;-78
2021/07/06 00:39:36;;;;;;;12.68;10.60;;;16.80;99.90;;;;;;6320240;22;20028;-79
2021/07/06 00:42:06;;;;;;;13.80;11.57;;;16.80;99.90;;;;;;6346879;22;20007;-79
2021/07/06 00:44:32;;;;;;;13.93;10.73;;;16.80;99.90;;;;;;6336834;22;20022;-79
2021/07/06 00:46:58;;;;;;;13.88;11.13;;;16.80;99.90;;;;;;6308667;22;20058;-79
2021/07/06 00:49:23;;;;;;;16.75;11.18;;;16.80;99.90;;;;;;6347184;22;20308;-79
2021/07/06 00:51:49;;;;;;;14.15;10.90;;;16.80;99.90;;;;;;6347078;22;20011;-79
2021/07/06 00:54:17;;;;;;;17.38;11.40;;;16.80;99.90;;;;;;6346285;22;20014;-79
2021/07/06 00:56:44;;;;;;;17.95;11.43;;;16.80;99.90;;;;;;6319496;22;20057;-79
2021/07/06 00:59:10;;;;;;;18.13;11.18;;;16.80;99.90;;;;;;6310827;22;20011;-79
2021/07/06 01:01:36;;;;;;;13.85;11.90;;;16.90;99.90;;;;;;6344401;22;20014;-79
2021/07/06 01:04:03;;;;;;;13.80;11.15;;;16.80;99.90;;;;;;6315758;22;20431;-79
2021/07/06 01:06:29;;;;;;;13.85;10.95;;;16.80;99.90;;;;;;6321136;22;20034;-79
2021/07/06 01:08:54;;;;;;;16.83;11.32;;;16.80;99.90;;;;;;6348606;22;20423;-79
2021/07/06 01:11:21;;;;;;;18.52;11.63;;;16.80;99.90;;;;;;6349081;22;20011;-79
2021/07/06 01:13:47;;;;;;;20.08;12.23;;;16.80;99.90;;;;;;6348560;22;20505;-79
2021/07/06 01:16:12;;;;;;;18.52;11.75;;;16.80;99.90;;;;;;6310896;22;20010;-79
2021/07/06 01:18:38;;;;;;;16.00;11.45;;;16.80;99.90;;;;;;6348667;22;20144;-79
2021/07/06 01:21:04;;;;;;;14.00;11.40;;;16.80;99.90;;;;;;6310897;22;20006;-79
2021/07/06 01:23:31;;;;;;;14.70;11.75;;;16.80;99.90;;;;;;6319938;22;20011;-79
2021/07/06 01:26:01;;;;;;;15.45;11.52;;;16.80;99.90;;;;;;6321452;22;20120;-79
2021/07/06 01:28:27;;;;;;;15.60;11.30;;;16.80;99.90;;;;;;6337995;22;20084;-79
2021/07/06 01:30:53;;;;;;;18.70;11.80;;;16.80;99.90;;;;;;6347342;22;20015;-79
2021/07/06 01:33:27;;;;;;;14.30;11.50;;;16.90;99.90;;;;;;6337734;22;20007;-79
2021/07/06 01:35:56;;;;;;;18.35;11.40;;;16.80;99.90;;;;;;6310881;22;20443;-79
2021/07/06 01:38:23;;;;;;;22.38;11.93;;;16.90;99.90;;;;;;6310038;22;20109;-79
2021/07/06 01:40:49;;;;;;;21.02;11.98;;;16.90;99.90;;;;;;6320525;22;20046;-79
2021/07/06 01:43:16;;;;;;;15.52;11.70;;;16.90;99.90;;;;;;6348602;22;20018;-79
2021/07/06 01:45:43;;;;;;;16.85;11.98;;;17.00;99.90;;;;;;6320146;22;20015;-79
2021/07/06 01:48:09;;;;;;;15.88;11.50;;;16.90;99.90;;;;;;6348372;22;20045;-79
2021/07/06 01:50:40;;;;;;;15.15;11.65;;;16.90;99.90;;;;;;6320790;22;20015;-79
2021/07/06 01:53:15;;;;;;;18.92;11.35;;;16.90;99.90;;;;;;6309882;22;20011;-79
2021/07/06 01:55:46;;;;;;;14.38;11.75;;;17.00;99.90;;;;;;6320672;22;20007;-79
2021/07/06 01:58:15;;;;;;;16.45;10.80;;;17.00;99.90;;;;;;6337691;22;20339;-80
2021/07/06 02:00:47;;;;;;;17.35;10.98;;;17.00;99.90;;;;;;6310357;22;20011;-79
2021/07/06 02:03:13;;;;;;;17.75;11.40;;;17.00;99.90;;;;;;6311309;22;20014;-79
2021/07/06 02:05:41;;;;;;;17.30;11.15;;;17.00;99.90;;;;;;6348394;22;20114;-80
2021/07/06 02:08:17;;;;;;;13.35;11.05;;;17.00;99.90;;;;;;6310015;22;20064;-79
2021/07/06 02:10:44;;;;;;;14.18;10.43;;;17.00;99.90;;;;;;6348597;22;20035;-79
2021/07/06 02:13:16;;;;;;;15.90;10.85;;;17.00;99.90;;;;;;6348998;22;20480;-79
2021/07/06 02:15:44;;;;;;;17.05;10.77;;;17.00;99.90;;;;;;6320341;22;20093;-79
2021/07/06 02:18:16;;;;;;;16.05;11.70;;;17.00;99.90;;;;;;6310502;22;20380;-79
2021/07/06 02:20:42;;;;;;;16.05;11.05;;;17.00;99.90;;;;;;6348245;22;20006;-79
2021/07/06 02:23:08;;;;;;;13.48;10.82;;;17.00;99.90;;;;;;6347309;22;20049;-79
2021/07/06 02:25:35;;;;;;;16.75;10.65;;;17.00;99.90;;;;;;6310349;22;20129;-80
2021/07/06 02:28:01;;;;;;;12.43;10.95;;;17.00;99.90;;;;;;6320825;22;20314;-79
2021/07/06 02:30:26;;;;;;;14.18;10.60;;;17.00;99.90;;;;;;6310239;22;20093;-79
2021/07/06 02:32:53;;;;;;;15.93;9.73;;;17.00;99.90;;;;;;6310029;22;20327;-79
2021/07/06 02:35:19;;;;;;;14.77;10.40;;;17.00;99.90;;;;;;6347864;22;20019;-79
2021/07/06 02:37:45;;;;;;;15.43;10.10;;;17.00;99.90;;;;;;6347438;22;20430;-79
2021/07/06 02:40:13;;;;;;;16.27;10.00;;;17.00;99.90;;;;;;6337466;22;20013;-79
2021/07/06 02:42:40;;;;;;;20.50;10.35;;;17.00;99.90;;;;;;6310080;22;20315;-79
2021/07/06 02:45:08;;;;;;;19.58;10.43;;;17.00;99.90;;;;;;6284869;22;20014;-80
2021/07/06 02:47:34;;;;;;;17.13;10.50;;;17.00;99.90;;;;;;6309947;22;20365;-79
2021/07/06 02:50:00;;;;;;;13.52;10.45;;;17.00;99.90;;;;;;6309819;22;20041;-79
2021/07/06 02:52:26;;;;;;;17.67;10.15;;;17.10;99.90;;;;;;6336656;22;20019;-79
2021/07/06 02:54:52;;;;;;;14.23;9.85;;;17.10;99.90;;;;;;6320585;22;20078;-79
2021/07/06 02:57:36;;;;;;;16.55;9.63;;;17.10;99.90;;;;;;6320075;22;20100;-79
2021/07/06 03:00:25;;;;;;;10.10;8.93;;;17.10;99.90;;;;;;6347680;22;20042;-79
2021/07/06 03:02:54;;;;;;;12.32;9.15;;;17.00;99.90;;;;;;6309335;22;20306;-79
2021/07/06 03:05:22;;;;;;;14.68;8.93;;;17.10;99.90;;;;;;6309602;22;20014;-79
2021/07/06 03:07:50;;;;;;;13.02;9.07;;;17.10;99.90;;;;;;6283577;22;20040;-79
2021/07/06 03:10:21;;;;;;;10.63;8.50;;;17.10;99.90;;;;;;6309616;22;20018;-79
2021/07/06 03:12:47;;;;;;;9.48;8.18;;;17.00;99.90;;;;;;6284181;22;20082;-79
2021/07/06 03:15:15;;;;;;;10.20;8.38;;;17.10;99.90;;;;;;6336950;22;20038;-80
2021/07/06 03:17:42;;;;;;;12.25;8.52;;;17.10;99.90;;;;;;6338843;22;20038;-80
2021/07/06 03:20:10;;;;;;;13.18;7.93;;;17.10;99.90;;;;;;6308929;22;20101;-80
2021/07/06 03:22:36;;;;;;;14.77;7.68;;;17.10;99.90;;;;;;6346991;22;20010;-80
2021/07/06 03:25:04;;;;;;;10.07;7.47;;;17.10;99.90;;;;;;6320238;22;20041;-79
2021/07/06 03:27:31;;;;;;;8.13;7.30;;;17.10;99.90;;;;;;6309318;22;20030;-79
2021/07/06 03:29:56;;;;;;;9.95;7.55;;;17.10;99.90;;;;;;6313613;22;20010;-79
2021/07/06 03:32:22;;;;;;;10.00;7.07;;;17.20;99.90;;;;;;6337512;22;20077;-80
2021/07/06 03:34:48;;;;;;;12.52;7.28;;;17.10;99.90;;;;;;6309304;22;20018;-79
2021/07/06 03:37:14;;;;;;;13.30;7.07;;;17.10;99.90;;;;;;6336592;22;20010;-79
2021/07/06 03:39:40;;;;;;;16.00;7.40;;;17.10;99.90;;;;;;6309470;22;20022;-78
2021/07/06 03:42:08;;;;;;;14.10;6.97;;;17.10;99.90;;;;;;6309206;22;20014;-79
2021/07/06 03:44:35;;;;;;;10.65;7.40;;;17.00;99.90;;;;;;6309245;22;20063;-79
2021/07/06 03:47:01;;;;;;;9.68;6.82;;;17.10;99.90;;;;;;6314246;22;20036;-79
2021/07/06 03:49:27;;;;;;;10.27;6.72;;;17.10;99.90;;;;;;6346911;22;20086;-79
2021/07/06 03:51:53;;;;;;;12.85;7.45;;;17.00;99.90;;;;;;6309106;22;20041;-79
2021/07/06 03:54:19;;;;;;;8.05;6.35;;;17.20;99.90;;;;;;6319162;22;20101;-79
2021/07/06 03:56:45;;;;;;;8.38;6.80;;;17.20;99.90;;;;;;6309647;22;20470;-79
2021/07/06 03:59:11;;;;;;;16.10;7.60;;;17.20;99.90;;;;;;6309589;22;20015;-79
2021/07/06 04:01:37;;;;;;;9.45;6.72;;;17.30;99.90;;;;;;6316167;22;20423;-79
2021/07/06 04:04:03;;;;;;;8.23;6.40;;;17.30;99.90;;;;;;6314185;22;20018;-79
2021/07/06 04:06:30;;;;;;;10.18;6.57;;;17.40;99.90;;;;;;6320044;22;20011;-79
2021/07/06 04:08:56;;;;;;;7.22;6.15;;;17.40;99.90;;;;;;6319186;22;20045;-79
2021/07/06 04:11:22;;;;;;;13.80;6.60;;;17.40;99.90;;;;;;6347488;22;20377;-79
2021/07/06 04:13:49;;;;;;;14.77;6.10;;;17.40;99.90;;;;;;6308481;22;20049;-79
2021/07/06 04:16:15;;;;;;;6.90;5.88;;;17.50;99.90;;;;;;6317864;22;20083;-78
2021/07/06 04:18:41;;;;;;;8.15;5.85;;;17.50;99.90;;;;;;6336598;22;20038;-79
2021/07/06 04:21:07;;;;;;;9.85;5.80;;;17.50;99.90;;;;;;6319757;22;20376;-79
2021/07/06 04:23:34;;;;;;;8.43;5.82;;;17.60;99.90;;;;;;6346446;22;20010;-79
2021/07/06 04:26:00;;;;;;;8.23;5.55;;;17.60;99.90;;;;;;6337021;22;20126;-79
2021/07/06 04:28:27;;;;;;;6.03;5.40;;;17.60;99.90;;;;;;6308952;22;20431;-79
2021/07/06 04:30:53;;;;;;;8.60;5.53;;;17.60;99.90;;;;;;6284669;22;20026;-79
2021/07/06 04:33:18;;;;;;;6.53;4.53;;;17.60;99.90;;;;;;6306586;22;20015;-79
2021/07/06 04:35:44;;;;;;;8.77;5.20;;;17.70;99.90;;;;;;6307321;22;20022;-79
2021/07/06 04:38:10;;;;;;;7.53;5.40;;;17.80;99.90;;;;;;6289996;22;20039;-79
2021/07/06 04:40:36;;;;;;;9.10;5.00;;;17.80;99.90;;;;;;6307940;22;20075;-79
2021/07/06 04:43:05;;;;;;;7.93;4.60;;;18.00;99.90;;;;;;6280231;22;20415;-79
2021/07/06 04:45:31;;;;;;;6.38;4.80;;;18.20;99.90;;;;;;6306982;22;20416;-79
2021/07/06 04:47:57;;;;;;;9.05;3.92;;;18.20;99.90;;;;;;6308192;22;20007;-80
2021/07/06 04:50:23;;;;;;;8.73;4.50;;;18.50;99.90;;;;;;6279598;22;20049;-79
2021/07/06 04:52:49;;;;;;;9.35;4.05;;;18.40;99.90;;;;;;6277880;22;20461;-78
2021/07/06 04:55:17;;;;;;;7.65;4.45;;;18.30;99.90;;;;;;6279457;22;20018;-79
2021/07/06 04:57:43;;;;;;;5.53;4.20;;;18.30;99.90;;;;;;6278058;22;20019;-77
2021/07/06 05:00:10;;;;;;;5.35;3.80;;;18.30;99.90;;;;;;6263580;22;20007;-78
2021/07/06 05:02:36;;;;;;;5.75;3.45;;;18.30;99.90;;;;;;6306307;22;20018;-78
2021/07/06 05:05:04;;;;;;;5.30;3.53;;;18.30;99.90;;;;;;6278784;22;20015;-78
2021/07/06 05:07:30;;;;;;;4.22;3.53;;;18.30;99.90;;;;;;6277542;22;20280;-80
2021/07/06 05:09:55;;;;;;;6.57;3.70;;;18.30;99.90;;;;;;6317270;22;20086;-79
2021/07/06 05:12:21;;;;;;;6.00;3.80;;;18.40;99.90;;;;;;6307362;22;20407;-79
2021/07/06 05:14:47;;;;;;;5.93;3.10;;;18.40;99.90;;;;;;6317906;22;20076;-80
2021/07/06 05:17:13;;;;;;;3.97;3.20;;;18.50;99.90;;;;;;6312454;22;20118;-80
2021/07/06 05:19:38;;;;;;;3.97;2.92;;;18.60;99.90;;;;;;6307028;22;20011;-79
2021/07/06 05:22:04;;;;;;;4.60;2.45;;;18.80;99.90;;;;;;6317547;22;20436;-79
2021/07/06 05:24:30;;;;;;;4.50;2.60;;;18.90;99.90;;;;;;6306732;22;20014;-76
2021/07/06 05:26:56;;;;;;;3.75;2.70;;;18.90;99.90;;;;;;6307243;22;20038;-78
2021/07/06 05:29:22;;;;;;;7.10;2.78;;;18.90;99.90;;;;;;6320502;22;20019;-80
2021/07/06 05:31:48;;;;;;;2.95;2.20;;;19.00;99.90;;;;;;6309971;22;20324;-80
2021/07/06 05:34:13;;;;;;;7.00;2.40;;;19.20;99.90;;;;;;6310044;22;20116;-78
2021/07/06 05:36:39;;;;;;;4.85;1.90;;;19.50;99.90;;;;;;6311323;22;20042;-79
2021/07/06 05:39:08;;;;;;;6.05;2.00;;;19.70;99.90;;;;;;6341847;22;20010;-78
2021/07/06 05:41:34;;;;;;;4.07;1.85;;;19.70;99.90;;;;;;6347913;22;20010;-77
2021/07/06 05:44:00;;;;;;;4.03;1.65;;;19.70;99.90;;;;;;6320579;22;20048;-78
2021/07/06 05:46:29;;;;;;;2.83;1.60;;;19.70;99.90;;;;;;6293830;22;20030;-76
2021/07/06 05:48:55;;;;;;;2.08;1.52;;;19.70;99.90;;;;;;6357396;22;20374;-77
2021/07/06 05:51:22;;;;;;;3.53;1.70;;;19.60;99.90;;;;;;6357551;22;20095;-77
2021/07/06 05:53:49;;;;;;;6.32;1.38;;;19.60;99.90;;;;;;6314870;22;20097;-80
2021/07/06 05:56:19;;;;;;;1.75;1.20;;;19.40;99.90;;;;;;6320818;22;20181;-80
2021/07/06 05:58:46;;;;;;;2.38;1.45;;;19.50;99.90;;;;;;6347932;22;20045;-80
2021/07/06 06:01:12;;;;;;;2.47;1.30;;;19.40;99.90;;;;;;6347563;22;20014;-77
2021/07/06 06:03:39;;;;;;;2.80;1.15;;;19.30;99.90;;;;;;6337797;22;20011;-78
2021/07/06 06:06:04;;;;;;;5.10;1.20;;;19.30;99.90;;;;;;6348691;22;20503;-78
2021/07/06 06:08:30;;;;;;;5.68;1.10;;;19.30;99.90;;;;;;6320154;22;20010;-77
2021/07/06 06:10:56;;;;;;;3.67;1.20;;;19.30;99.90;;;;;;6320802;22;20285;-78
2021/07/06 06:13:22;;;;;;;3.85;1.50;;;19.30;99.90;;;;;;6348054;22;20125;-77
2021/07/06 06:15:48;;;;;;;4.05;1.30;;;19.30;99.90;;;;;;6309508;22;20106;-79
2021/07/06 06:18:14;;;;;;;4.13;1.30;;;19.20;99.90;;;;;;6338686;22;20017;-77
2021/07/06 06:20:40;;;;;;;4.15;1.20;;;19.30;99.90;;;;;;6309825;22;20417;-79
2021/07/06 06:23:05;;;;;;;3.90;1.38;;;19.30;99.90;;;;;;6319428;22;20014;-77
2021/07/06 06:25:32;;;;;;;5.50;1.40;;;19.40;99.90;;;;;;6337707;22;20034;-80
2021/07/06 06:27:59;;;;;;;5.43;1.40;;;19.40;99.90;;;;;;6283292;22;20011;-79
2021/07/06 06:30:25;;;;;;;6.35;1.85;;;19.50;99.90;;;;;;6341709;22;20025;-81
2021/07/06 06:32:54;;;;;;;4.43;1.25;;;19.50;99.90;;;;;;6309713;22;20085;-81
2021/07/06 06:35:20;;;;;;;4.85;1.17;;;19.50;99.90;;;;;;6309105;22;20373;-79
2021/07/06 06:37:46;;;;;;;6.63;1.50;;;19.60;99.90;;;;;;6319487;22;20011;-80
2021/07/06 06:40:12;;;;;;;1.85;1.10;;;19.60;99.90;;;;;;6309894;22;20083;-78
2021/07/06 06:42:39;;;;;;;4.10;1.30;;;19.60;99.90;;;;;;6348138;22;20021;-81
2021/07/06 06:45:06;;;;;;;4.50;1.25;;;19.60;99.90;;;;;;6320416;22;20007;-81
2021/07/06 06:47:36;;;;;;;5.97;1.58;;;19.60;99.90;;;;;;6337271;22;20441;-80
2021/07/06 06:50:05;;;;;;;3.30;1.38;;;19.60;99.90;;;;;;6309894;22;20095;-75
2021/07/06 06:52:31;;;;;;;4.38;1.27;;;19.60;99.90;;;;;;6336970;22;20033;-78
2021/07/06 06:54:57;;;;;;;4.32;1.35;;;19.60;99.90;;;;;;6308501;22;20014;-79
2021/07/06 06:57:24;;;;;;;5.45;1.15;;;19.60;99.90;;;;;;6309155;22;20458;-78
2021/07/06 06:59:49;;;;;;;1.90;1.30;;;19.60;99.90;;;;;;6337491;22;20007;-81
2021/07/06 07:02:21;;;;;;;1.98;1.20;;;19.60;99.90;;;;;;6309754;22;20022;-77
2021/07/06 07:04:52;;;;;;;2.30;1.17;;;19.70;99.90;;;;;;6308771;22;20039;-80
2021/07/06 07:07:21;;;;;;;2.92;1.60;;;19.70;99.90;;;;;;6336505;22;20033;-78
2021/07/06 07:09:46;;;;;;;3.90;1.33;;;19.80;99.90;;;;;;6308970;22;20018;-79
2021/07/06 07:12:13;;;;;;;2.30;1.20;;;19.70;99.90;;;;;;6347262;22;20059;-80
2021/07/06 07:14:39;;;;;;;4.00;1.33;;;19.80;99.90;;;;;;6337026;22;20049;-80
2021/07/06 07:17:06;;;;;;;5.20;1.70;;;19.90;99.90;;;;;;6336449;22;20015;-79
2021/07/06 07:19:32;;;;;;;4.93;1.33;;;19.90;99.90;;;;;;6281827;22;20048;-79
2021/07/06 07:21:58;;;;;;;6.28;1.30;;;20.00;99.90;;;;;;6308343;22;20386;-79
2021/07/06 07:24:23;;;;;;;5.18;1.40;;;20.00;99.90;;;;;;6346419;22;20011;-79
2021/07/06 07:26:50;;;;;;;7.63;1.40;;;20.00;99.90;;;;;;6308424;22;20018;-80
2021/07/06 07:29:16;;;;;;;5.22;1.42;;;20.10;99.90;;;;;;6345794;22;20014;-81
2021/07/06 07:31:43;;;;;;;2.63;1.40;;;20.10;99.90;;;;;;6337205;22;20549;-81
2021/07/06 07:34:09;;;;;;;2.75;1.60;;;20.20;99.90;;;;;;6347400;22;20015;-83
2021/07/06 07:36:35;;;;;;;3.60;1.50;;;20.30;99.90;;;;;;6336728;22;20304;-81
2021/07/06 07:39:01;;;;;;;3.58;1.33;;;20.30;99.90;;;;;;6346992;22;20094;-84
2021/07/06 07:41:27;;;;;;;2.30;1.30;;;20.40;99.90;;;;;;6308659;22;20371;-79
2021/07/06 07:43:54;;;;;;;5.05;1.65;;;20.50;99.90;;;;;;6335999;22;20335;-80
2021/07/06 07:46:38;;;;;;;3.80;1.50;;;20.50;99.90;;;;;;6309097;22;20080;-80
2021/07/06 07:49:04;;;;;;;4.50;1.67;;;20.60;99.90;;;;;;6346277;22;20432;-79
2021/07/06 07:51:30;;;;;;;4.70;1.40;;;20.60;99.90;;;;;;6307430;22;20022;-80
2021/07/06 07:53:55;;;;;;;3.53;1.50;;;20.70;99.90;;;;;;6308114;22;20007;-79
2021/07/06 07:56:21;;;;;;;2.97;1.50;;;20.80;99.90;;;;;;6347253;22;20010;-81
2021/07/06 07:58:47;;;;;;;3.10;1.80;;;20.90;99.90;;;;;;6347541;22;20090;-78
2021/07/06 08:01:12;;;;;;;2.78;1.30;;;21.00;99.90;;;;;;6310531;22;20408;-78
2021/07/06 08:03:38;;;;;;;6.32;1.40;;;21.10;99.90;;;;;;6308789;22;20037;-81
2021/07/06 08:06:04;;;;;;;6.03;1.55;;;21.10;99.90;;;;;;6309254;22;20046;-78
2021/07/06 08:08:30;;;;;;;8.68;1.60;;;21.20;99.90;;;;;;6338038;22;20071;-81
2021/07/06 08:10:58;;;;;;;5.25;1.85;;;21.30;99.90;;;;;;6349629;22;20010;-80
2021/07/06 08:13:25;;;;;;;4.80;1.25;;;21.20;99.90;;;;;;6311263;22;20453;-80
2021/07/06 08:15:52;;;;;;;3.25;1.50;;;21.30;99.90;;;;;;6349238;22;20010;-81
2021/07/06 08:18:19;;;;;;;4.38;1.60;;;21.30;99.90;;;;;;6310978;22;20022;-81
2021/07/06 08:20:45;;;;;;;6.72;1.70;;;21.40;99.90;;;;;;6311319;22;20019;-83
2021/07/06 08:23:11;;;;;;;3.80;1.42;;;21.40;99.90;;;;;;6307176;22;20014;-80
2021/07/06 08:25:38;;;;;;;4.85;1.65;;;21.50;99.90;;;;;;6311350;22;20011;-79
2021/07/06 08:28:04;;;;;;;3.40;1.40;;;21.50;99.90;;;;;;6310733;22;20073;-81
2021/07/06 08:30:30;;;;;;;5.80;1.70;;;21.60;99.90;;;;;;6343038;22;20037;-81
2021/07/06 08:32:57;;;;;;;5.68;1.63;;;21.60;99.90;;;;;;6338333;22;20015;-82
2021/07/06 08:35:23;;;;;;;5.72;1.80;;;21.50;99.90;;;;;;6349007;22;20017;-81
2021/07/06 08:37:49;;;;;;;5.47;1.65;;;21.60;99.90;;;;;;6310243;22;20011;-81
2021/07/06 08:40:15;;;;;;;4.10;1.60;;;21.60;99.90;;;;;;6348973;22;20011;-84
2021/07/06 08:42:42;;;;;;;6.25;1.77;;;21.60;99.90;;;;;;6338586;22;20095;-79
2021/07/06 08:45:09;;;;;;;6.22;1.60;;;21.60;99.90;;;;;;6312016;22;20057;-77
2021/07/06 08:47:37;;;;;;;4.53;1.77;;;21.60;99.90;;;;;;6344874;22;20094;-82
2021/07/06 08:50:07;;;;;;;6.70;1.70;;;21.60;99.90;;;;;;6339114;22;20054;-82
2021/07/06 08:52:38;;;;;;;4.03;1.60;;;21.60;99.90;;;;;;6310800;22;20021;-80
2021/07/06 08:55:05;;;;;;;4.00;1.35;;;21.50;99.90;;;;;;6311223;22;20019;-84
2021/07/06 08:57:30;;;;;;;8.90;1.63;;;21.40;99.90;;;;;;6285058;22;20006;-82
2021/07/06 08:59:56;;;;;;;2.70;1.33;;;21.30;99.90;;;;;;6321100;22;20037;-81
2021/07/06 09:02:22;;;;;;;6.38;1.60;;;21.20;99.90;;;;;;6344437;22;20007;-80
2021/07/06 09:04:51;;;;;;;10.45;1.45;;;21.20;99.90;;;;;;6310260;22;20097;-87
2021/07/06 09:07:18;;;;;;;2.85;1.40;;;21.10;99.90;;;;;;6321501;22;20034;-81
2021/07/06 09:09:45;;;;;;;3.47;1.30;;;21.10;99.90;;;;;;6311115;22;20023;-84
2021/07/06 09:12:12;;;;;;;6.45;1.58;;;21.10;99.90;;;;;;6311352;22;20435;-82
2021/07/06 09:14:44;;;;;;;4.00;1.38;;;21.10;99.90;;;;;;6317393;22;20037;-80
2021/07/06 09:17:15;;;;;;;3.15;1.52;;;21.30;99.90;;;;;;6334734;22;20052;-81
2021/07/06 09:19:46;;;;;;;5.22;1.48;;;21.80;99.90;;;;;;6345338;22;20034;-80
2021/07/06 09:22:12;;;;;;;4.80;1.23;;;22.30;99.90;;;;;;6369319;22;20011;-80
2021/07/06 09:24:40;;;;;;;5.50;1.60;;;22.40;99.90;;;;;;6330066;22;20307;-77
2021/07/06 09:27:21;;;;;;;6.68;1.50;;;22.50;99.90;;;;;;6325350;22;20066;-78
2021/07/06 09:30:22;;;;;;;3.72;1.33;;;22.40;99.90;;;;;;6363621;22;20024;-82
2021/07/06 09:32:52;;;;;;;2.22;1.20;;;22.30;99.90;;;;;;6156833;23;20095;-84
2021/07/06 09:35:28;;;;;;;4.32;1.40;;;22.10;99.90;;;;;;6156392;23;20433;-82
2021/07/06 09:38:07;;;;;;;2.65;1.60;;;22.00;99.90;;;;;;6157964;23;20501;-80
2021/07/06 09:40:36;;;;;;;5.22;1.25;;;22.20;99.90;;;;;;6183250;23;20096;-84
2021/07/06 09:43:27;;;;;;;8.27;1.40;;;22.50;99.90;;;;;;6157092;23;20017;-84
2021/07/06 09:46:11;;;;;;;2.45;1.30;;;22.80;99.90;;;;;;6194020;23;20338;-81
2021/07/06 09:49:00;;;;;;;7.97;1.40;;;23.20;99.90;;;;;;6189344;23;20196;-84
2021/07/06 09:51:26;;;;;;;4.45;1.33;;;23.40;99.90;;;;;;6157967;23;20016;-81
2021/07/06 09:53:54;;;;;;;14.02;1.30;;;23.40;99.90;;;;;;6156074;23;20086;-84
2021/07/06 09:56:24;;;;;;;4.82;1.23;;;23.30;99.90;;;;;;6156901;23;20017;-83
2021/07/06 09:58:56;;;;;;;5.25;1.17;;;23.30;99.90;;;;;;6156635;23;20092;-80
2021/07/06 10:01:23;;;;;;;5.18;1.45;;;23.30;99.90;;;;;;6155952;23;20128;-81
2021/07/06 10:03:50;;;;;;;6.75;1.13;;;23.60;99.90;;;;;;6156979;23;20017;-84
2021/07/06 10:06:21;;;;;;;4.78;1.20;;;23.60;99.90;;;;;;6193009;23;20136;-82
2021/07/06 10:08:48;;;;;;;3.33;1.50;;;23.90;99.90;;;;;;6288260;22;20435;-79
2021/07/06 10:11:14;;;;;;;3.78;1.05;;;24.10;99.90;;;;;;6310101;22;20457;-81
2021/07/06 10:13:40;;;;;;;5.63;1.20;;;24.20;99.90;;;;;;6338007;22;20014;-82
2021/07/06 10:16:06;;;;;;;6.25;1.08;;;24.50;99.90;;;;;;6348568;22;20015;-79
2021/07/06 10:18:33;;;;;;;5.20;1.10;;;24.60;99.90;;;;;;6309868;22;20011;-82
2021/07/06 10:21:00;;;;;;;11.60;1.40;;;24.60;99.90;;;;;;6309865;22;20076;-82
2021/07/06 10:23:26;;;;;;;2.63;1.00;;;24.50;99.90;;;;;;6309230;22;20011;-83
2021/07/06 10:25:54;;;;;;;5.15;0.95;;;24.20;99.90;;;;;;6309372;22;20007;-82
2021/07/06 10:28:22;;;;;;;5.53;1.05;;;24.00;99.90;;;;;;6308990;22;20066;-83
2021/07/06 10:30:49;;;;;;;6.78;1.33;;;23.60;99.90;;;;;;6308545;22;20295;-81
2021/07/06 10:33:32;;;;;;;11.60;1.90;;;23.10;99.90;;;;;;6341299;22;20081;-82
2021/07/06 10:36:00;;;;;;;7.22;2.50;;;22.30;99.90;;;;;;6309298;22;20375;-82
2021/07/06 10:40:57;;;;;;;7.78;1.63;;;20.70;99.90;;;;;;6348566;22;20049;-84
2021/07/06 10:43:42;;;;;;;7.35;1.30;;;20.40;99.90;;;;;;6320940;22;20014;-86
2021/07/06 10:46:20;;;;;;;4.55;1.30;;;20.30;99.90;;;;;;6309031;22;20029;-80
2021/07/06 10:49:02;;;;;;;4.13;1.60;;;20.20;99.90;;;;;;6338601;22;20011;-80
2021/07/06 10:51:39;;;;;;;4.35;1.40;;;20.30;99.90;;;;;;6346969;22;20017;-78
2021/07/06 10:54:21;;;;;;;3.30;1.17;;;20.30;99.90;;;;;;6346880;22;20011;-77
2021/07/06 10:56:56;;;;;;;3.97;1.55;;;20.50;99.90;;;;;;6347227;22;20319;-78
2021/07/06 10:59:31;;;;;;;4.72;1.50;;;20.70;99.90;;;;;;6308986;22;20442;-81
2021/07/06 11:02:24;;;;;;;4.20;1.40;;;21.20;99.90;;;;;;6309950;22;20015;-79
2021/07/06 11:04:55;;;;;;;9.18;1.70;;;21.40;99.90;;;;;;6339660;22;20010;-80
2021/07/06 11:07:26;;;;;;;4.88;1.27;;;21.70;99.90;;;;;;6337279;22;20015;-82
2021/07/06 11:09:52;;;;;;;7.18;1.40;;;22.00;99.90;;;;;;6348114;22;20018;-80
2021/07/06 11:12:31;;;;;;;3.58;1.23;;;22.10;99.90;;;;;;6348163;22;20011;-82
2021/07/06 11:15:02;;;;;;;5.90;1.40;;;22.30;99.90;;;;;;6309742;22;20026;-78
2021/07/06 11:17:36;;;;;;;8.68;1.40;;;22.60;99.90;;;;;;6309401;22;20050;-81
2021/07/06 11:20:10;;;;;;;7.70;1.55;;;23.00;99.90;;;;;;6309822;22;20021;-82
2021/07/06 11:22:42;;;;;;;4.22;1.20;;;23.10;99.90;;;;;;6337986;22;20431;-80
2021/07/06 11:25:27;;;;;;;4.65;1.20;;;23.20;99.90;;;;;;6309414;22;20011;-81
2021/07/06 11:27:59;;;;;;;3.72;1.15;;;23.40;99.90;;;;;;6309253;22;20018;-79
2021/07/06 11:30:40;;;;;;;5.78;1.20;;;23.50;99.90;;;;;;6337871;22;20023;-78
2021/07/06 11:33:10;;;;;;;7.68;1.30;;;23.60;99.90;;;;;;6337276;22;20034;-80
2021/07/06 11:35:41;;;;;;;4.90;1.23;;;23.40;99.90;;;;;;6347975;22;20007;-78
2021/07/06 11:38:13;;;;;;;4.22;1.20;;;23.50;99.90;;;;;;6347550;22;20040;-78
2021/07/06 11:40:41;;;;;;;7.15;1.20;;;23.70;99.90;;;;;;6309879;22;20015;-80
2021/07/06 11:43:08;;;;;;;4.97;1.35;;;23.80;99.90;;;;;;6348193;22;20082;-80
2021/07/06 11:45:36;;;;;;;4.10;1.10;;;24.20;99.90;;;;;;6309706;22;20011;-81
2021/07/06 11:48:10;;;;;;;10.40;1.23;;;24.20;99.90;;;;;;6343445;22;20021;-78
2021/07/06 11:50:36;;;;;;;;;;;23.90;99.90;;;;;;6285071;22;20591;-81
2021/07/06 11:53:02;;;;;;;6.30;1.10;;;23.80;99.90;;;;;;6347565;22;19929;-81
2021/07/06 11:55:31;;;;;;;7.55;1.70;;;24.00;99.90;;;;;;6320572;22;20022;-81
2021/07/06 11:57:59;;;;;;;8.00;1.38;;;24.00;99.90;;;;;;6347105;22;20060;-79
2021/07/06 12:00:30;;;;;;;7.68;1.20;;;23.70;99.90;;;;;;6309023;22;20090;-80
2021/07/06 12:03:18;;;;;;;8.38;1.35;;;23.60;99.90;;;;;;6308998;22;20011;-81
2021/07/06 12:05:46;;;;;;;7.70;1.30;;;23.30;99.90;;;;;;6309394;22;20046;-81
2021/07/06 12:08:32;;;;;;;8.02;1.92;;;23.00;99.90;;;;;;6347086;22;20121;-78
2021/07/06 12:11:08;;;;;;;5.10;1.20;;;22.90;99.90;;;;;;6347927;22;20010;-81
2021/07/06 12:13:35;;;;;;;10.88;1.33;;;23.10;99.90;;;;;;6337374;22;20083;-81
2021/07/06 12:16:04;;;;;;;7.65;1.45;;;23.40;99.90;;;;;;6347800;22;20022;-80
2021/07/06 12:18:32;;;;;;;9.35;1.20;;;23.70;99.90;;;;;;6313000;22;20136;-80
2021/07/06 12:21:07;;;;;;;6.25;1.40;;;24.10;99.90;;;;;;6308500;22;20072;-79
2021/07/06 12:23:44;;;;;;;16.73;1.40;;;24.00;99.90;;;;;;6335864;22;20015;-80
2021/07/06 12:26:11;;;;;;;5.75;1.38;;;24.00;99.90;;;;;;6308130;22;20019;-82
2021/07/06 12:28:40;;;;;;;6.05;1.20;;;23.80;99.90;;;;;;6283559;22;20037;-84
2021/07/06 12:31:33;;;;;;;9.75;1.17;;;23.60;99.90;;;;;;6341612;22;20120;-87
2021/07/06 12:34:50;;;;;;;5.05;1.00;;;23.50;99.90;;;;;;6332197;22;20022;-83
2021/07/06 12:37:16;;;;;;;6.05;0.95;;;23.70;99.90;;;;;;6158381;23;20135;-84
2021/07/06 12:39:45;;;;;;;9.45;1.20;;;23.80;99.90;;;;;;6192266;23;20059;-83
2021/07/06 12:42:11;;;;;;;4.97;1.05;;;24.00;99.90;;;;;;6156906;23;20107;-83
2021/07/06 12:44:46;;;;;;;8.90;1.20;;;24.10;99.90;;;;;;6156746;23;20012;-83
2021/07/06 12:47:33;;;;;;;5.97;1.40;;;24.20;99.90;;;;;;6181195;23;20028;-89
2021/07/06 12:50:04;;;;;;;10.10;1.40;;;24.20;99.90;;;;;;6132170;23;20416;-84